createdAt,value
2023-03-17T00:00:26.116Z,95383
2023-03-17T00:01:28.622Z,95376.9
2023-03-17T00:02:31.607Z,95381
2023-03-17T00:03:34.306Z,95380.7
2023-03-17T00:04:36.871Z,95381.2
2023-03-17T00:05:39.384Z,95376.5
2023-03-17T00:06:41.614Z,95377.5
2023-03-17T00:07:43.867Z,95375.7
2023-03-17T00:08:47.467Z,95373.7
2023-03-17T00:09:49.975Z,95377.3
2023-03-17T00:10:52.526Z,95368.9
2023-03-17T00:11:55.155Z,95370.2
2023-03-17T00:12:57.429Z,95370.3
2023-03-17T00:13:59.668Z,95370.4
2023-03-17T00:15:02.252Z,95365.3
2023-03-17T00:16:04.414Z,95365.3
2023-03-17T00:17:07.181Z,95360.2
2023-03-17T00:18:09.790Z,95359.6
2023-03-17T00:19:12.332Z,95357.9
2023-03-17T00:20:14.564Z,95356.3
2023-03-17T00:21:16.835Z,95355.4
2023-03-17T00:22:19.473Z,95353.7
2023-03-17T00:23:22.067Z,95351.7
2023-03-17T00:24:24.330Z,95356.6
2023-03-17T00:25:26.560Z,95353.6
2023-03-17T00:26:29.129Z,95353.5
2023-03-17T00:27:31.468Z,95355.5
2023-03-17T00:28:33.997Z,95351.4
2023-03-17T00:29:36.548Z,95351.5
2023-03-17T00:30:39.081Z,95358.6
2023-03-17T00:31:41.692Z,95351.8
2023-03-17T00:32:44.449Z,95354
2023-03-17T00:33:46.754Z,95351.8
2023-03-17T00:34:49.284Z,95354.1
2023-03-17T00:35:51.737Z,95352.3
2023-03-17T00:36:54.145Z,95348.7
2023-03-17T00:37:56.645Z,95343.9
2023-03-17T00:38:59.196Z,95343.3
2023-03-17T00:40:01.525Z,95345.9
2023-03-17T00:41:04.027Z,95347
2023-03-17T00:42:06.554Z,95343.4
2023-03-17T00:43:09.143Z,95343.1
2023-03-17T00:44:11.687Z,95343.4
2023-03-17T00:45:14.171Z,95344.4
2023-03-17T00:46:16.254Z,95343.2
2023-03-17T00:47:18.551Z,95341.8
2023-03-17T00:48:20.813Z,95340.4
2023-03-17T00:49:22.906Z,95340.4
2023-03-17T00:50:25.116Z,95339.9
2023-03-17T00:51:27.623Z,95345.9
2023-03-17T00:52:30.127Z,95344.7
2023-03-17T00:53:32.618Z,95343.9
2023-03-17T00:54:34.876Z,95342.5
2023-03-17T00:55:37.110Z,95345.6
2023-03-17T00:56:39.665Z,95341.5
2023-03-17T00:57:42.159Z,95340.5
2023-03-17T00:58:45.034Z,95334.1
2023-03-17T00:59:47.759Z,95335
2023-03-17T01:00:50.226Z,95334
2023-03-17T01:01:52.823Z,95337.9
2023-03-17T01:02:54.312Z,95336
2023-03-17T01:03:56.540Z,95335.7
2023-03-17T01:06:04.453Z,95330.1
2023-03-17T01:07:07.473Z,95330.3
2023-03-17T01:08:09.980Z,95331.5
2023-03-17T01:09:12.187Z,95329.1
2023-03-17T01:10:14.717Z,95329.2
2023-03-17T01:11:17.243Z,95325.9
2023-03-17T01:12:19.450Z,95325.1
2023-03-17T01:13:21.927Z,95326.6
2023-03-17T01:14:24.005Z,95324.9
2023-03-17T01:15:26.580Z,95326.6
2023-03-17T01:16:29.307Z,95322.4
2023-03-17T01:17:31.348Z,95319.6
2023-03-17T01:18:33.756Z,95325
2023-03-17T01:19:36.353Z,95322
2023-03-17T01:20:38.569Z,95321.5
2023-03-17T01:21:40.811Z,95318.1
2023-03-17T01:22:43.062Z,95318.1
2023-03-17T01:23:45.268Z,95315
2023-03-17T01:24:47.769Z,95318.4
2023-03-17T01:25:50.287Z,95309.7
2023-03-17T01:26:52.793Z,95310.7
2023-03-17T01:27:55.278Z,95310
2023-03-17T01:28:57.777Z,95311.5
2023-03-17T01:30:00.358Z,95306.8
2023-03-17T01:31:02.621Z,95304.5
2023-03-17T01:32:05.171Z,95304.1
2023-03-17T01:33:07.511Z,95298.8
2023-03-17T01:34:09.751Z,95298.9
2023-03-17T01:35:12.321Z,95295.1
2023-03-17T01:36:14.772Z,95292.7
2023-03-17T01:37:17.033Z,95295.6
2023-03-17T01:38:19.590Z,95291.9
2023-03-17T01:39:21.860Z,95290.7
2023-03-17T01:40:24.083Z,95293.2
2023-03-17T01:41:26.655Z,95287.8
2023-03-17T01:42:29.196Z,95289.2
2023-03-17T01:43:31.530Z,95288.9
2023-03-17T01:44:34.040Z,95290.3
2023-03-17T01:45:36.699Z,95286.2
2023-03-17T01:46:39.063Z,95286.6
2023-03-17T01:47:41.572Z,95286.4
2023-03-17T01:48:43.797Z,95280.2
2023-03-17T01:49:46.013Z,95280.2
2023-03-17T01:50:48.498Z,95276.6
2023-03-17T01:51:50.998Z,95282.4
2023-03-17T01:52:53.578Z,95281.8
2023-03-17T01:53:55.810Z,95278.7
2023-03-17T01:54:58.044Z,95277.2
2023-03-17T01:56:00.540Z,95274.4
2023-03-17T01:57:03.069Z,95272.1
2023-03-17T01:58:05.568Z,95268.6
2023-03-17T01:59:08.143Z,95268.9
2023-03-17T02:00:10.650Z,95269.5
2023-03-17T02:01:13.161Z,95267
2023-03-17T02:02:15.762Z,95270.2
2023-03-17T02:03:18.317Z,95271
2023-03-17T02:04:21.267Z,95269.9
2023-03-17T02:05:23.727Z,95268.3
2023-03-17T02:06:25.667Z,95270.4
2023-03-17T02:07:27.627Z,95272.1
2023-03-17T02:08:30.125Z,95269.3
2023-03-17T02:09:32.341Z,95262.6
2023-03-17T02:10:34.314Z,95256.7
2023-03-17T02:11:36.851Z,95257.1
2023-03-17T02:12:39.369Z,95254
2023-03-17T02:13:41.680Z,95254.3
2023-03-17T02:14:43.960Z,95247.7
2023-03-17T02:15:46.468Z,95249.8
2023-03-17T02:16:49.347Z,95242.5
2023-03-17T02:17:52.061Z,95240
2023-03-17T02:18:54.618Z,95235.7
2023-03-17T02:19:57.162Z,95236.4
2023-03-17T02:20:59.665Z,95233.6
2023-03-17T02:22:01.909Z,95229.2
2023-03-17T02:23:04.399Z,95225.4
2023-03-17T02:24:06.909Z,95225.7
2023-03-17T02:25:09.404Z,95221.5
2023-03-17T02:26:11.137Z,95222.3
2023-03-17T02:27:13.365Z,95220
2023-03-17T02:28:15.578Z,95221.1
2023-03-17T02:29:18.084Z,95219.7
2023-03-17T02:30:20.606Z,95221.1
2023-03-17T02:31:23.367Z,95219.4
2023-03-17T02:32:26.322Z,95220.6
2023-03-17T02:33:28.417Z,95220.1
2023-03-17T02:34:30.396Z,95218.2
2023-03-17T02:35:33.205Z,95217.9
2023-03-17T02:36:35.978Z,95225.1
2023-03-17T02:37:38.305Z,95225.5
2023-03-17T02:38:40.829Z,95223.2
2023-03-17T02:39:43.344Z,95224.1
2023-03-17T02:40:45.580Z,95221.8
2023-03-17T02:41:48.075Z,95216.6
2023-03-17T02:42:50.038Z,95221
2023-03-17T02:43:52.560Z,95217.9
2023-03-17T02:44:54.789Z,95215.4
2023-03-17T02:45:57.481Z,95216.4
2023-03-17T02:47:00.110Z,95213.1
2023-03-17T02:48:02.698Z,95216.8
2023-03-17T02:49:04.951Z,95215.7
2023-03-17T02:50:07.192Z,95211.6
2023-03-17T02:51:09.699Z,95217.1
2023-03-17T02:52:12.249Z,95212.1
2023-03-17T02:53:14.753Z,95213.5
2023-03-17T02:54:17.262Z,95212.6
2023-03-17T02:55:19.490Z,95207.6
2023-03-17T02:56:22.010Z,95207.7
2023-03-17T02:57:24.563Z,95209.2
2023-03-17T02:58:26.766Z,95207.2
2023-03-17T02:59:29.043Z,95208.8
2023-03-17T03:00:32.803Z,95211.3
2023-03-17T03:01:35.758Z,95211.3
2023-03-17T03:02:38.687Z,95209.3
2023-03-17T03:03:41.073Z,95209.2
2023-03-17T03:04:43.334Z,95211.8
2023-03-17T03:05:45.555Z,95215.5
2023-03-17T03:06:47.822Z,95212.5
2023-03-17T03:07:50.040Z,95214.6
2023-03-17T03:08:52.566Z,95216.3
2023-03-17T03:09:55.067Z,95216.5
2023-03-17T03:10:56.442Z,95213.1
2023-03-17T03:11:58.666Z,95219.5
2023-03-17T03:13:00.862Z,95212
2023-03-17T03:14:03.349Z,95213.8
2023-03-17T03:15:06.048Z,95210.8
2023-03-17T03:16:08.728Z,95213.1
2023-03-17T03:17:11.157Z,95215.9
2023-03-17T03:18:13.668Z,95211.5
2023-03-17T03:19:16.031Z,95214.6
2023-03-17T03:20:18.291Z,95209.2
2023-03-17T03:21:20.515Z,95213
2023-03-17T03:22:23.028Z,95208.1
2023-03-17T03:23:25.288Z,95205.4
2023-03-17T03:24:27.208Z,95205.9
2023-03-17T03:25:29.453Z,95206.7
2023-03-17T03:26:32.011Z,95203.2
2023-03-17T03:27:34.529Z,95202.5
2023-03-17T03:28:37.022Z,95200.2
2023-03-17T03:29:39.540Z,95199.4
2023-03-17T03:30:41.781Z,95200.6
2023-03-17T03:31:43.961Z,95205.7
2023-03-17T03:32:46.817Z,95200.2
2023-03-17T03:33:49.406Z,95203.5
2023-03-17T03:34:51.683Z,95208.5
2023-03-17T03:35:54.483Z,95212.3
2023-03-17T03:36:57.101Z,95208.2
2023-03-17T03:37:59.327Z,95212.3
2023-03-17T03:39:01.550Z,95212.9
2023-03-17T03:40:03.813Z,95212.8
2023-03-17T03:41:06.406Z,95213.6
2023-03-17T03:42:08.929Z,95210
2023-03-17T03:44:16.405Z,95206
2023-03-17T03:45:18.896Z,95208.6
2023-03-17T03:46:21.627Z,95207.1
2023-03-17T03:47:23.861Z,95208.8
2023-03-17T03:48:26.411Z,95208
2023-03-17T03:49:28.773Z,95212
2023-03-17T03:50:32.757Z,95213.1
2023-03-17T03:51:35.403Z,95211.6
2023-03-17T03:52:37.347Z,95212.3
2023-03-17T03:53:39.565Z,95208.8
2023-03-17T03:54:42.054Z,95207.6
2023-03-17T03:55:44.585Z,95205.5
2023-03-17T03:56:46.798Z,95204.3
2023-03-17T03:57:48.731Z,95198.9
2023-03-17T03:58:50.972Z,95194.2
2023-03-17T03:59:53.511Z,95195.3
2023-03-17T04:00:56.027Z,95197.6
2023-03-17T04:01:58.308Z,95189
2023-03-17T04:03:01.234Z,95190.8
2023-03-17T04:04:03.760Z,95188.4
2023-03-17T04:05:05.968Z,95191.4
2023-03-17T04:06:08.345Z,95188.5
2023-03-17T04:07:11.057Z,95187.6
2023-03-17T04:08:13.647Z,95194.6
2023-03-17T04:09:16.163Z,95192.4
2023-03-17T04:10:18.677Z,95189.5
2023-03-17T04:11:21.167Z,95185.4
2023-03-17T04:12:23.366Z,95189
2023-03-17T04:13:25.886Z,95188.5
2023-03-17T04:14:28.416Z,95193.4
2023-03-17T04:15:30.931Z,95186.8
2023-03-17T04:16:33.297Z,95183.7
2023-03-17T04:17:35.928Z,95188.6
2023-03-17T04:18:38.818Z,95186.8
2023-03-17T04:19:41.540Z,95192.1
2023-03-17T04:20:44.086Z,95191.8
2023-03-17T04:21:46.665Z,95196.5
2023-03-17T04:22:49.188Z,95197
2023-03-17T04:23:51.448Z,95195.7
2023-03-17T04:24:53.670Z,95192.2
2023-03-17T04:25:56.215Z,95190.7
2023-03-17T04:26:58.757Z,95191.2
2023-03-17T04:28:00.700Z,95190.5
2023-03-17T04:29:02.915Z,95195.9
2023-03-17T04:30:05.129Z,95194.6
2023-03-17T04:31:07.767Z,95195.2
2023-03-17T04:32:10.108Z,95197
2023-03-17T04:33:12.582Z,95195.3
2023-03-17T04:34:14.811Z,95196.7
2023-03-17T04:35:16.508Z,95196.5
2023-03-17T04:36:18.734Z,95196.3
2023-03-17T04:37:21.328Z,95197
2023-03-17T04:38:23.614Z,95201.1
2023-03-17T04:39:25.810Z,95196.1
2023-03-17T04:40:28.586Z,95199.9
2023-03-17T04:41:31.472Z,95202.8
2023-03-17T04:42:34.018Z,95200.2
2023-03-17T04:43:36.242Z,95203.2
2023-03-17T04:44:38.482Z,95199.4
2023-03-17T04:45:40.747Z,95201.5
2023-03-17T04:46:43.150Z,95203
2023-03-17T04:47:45.375Z,95204.5
2023-03-17T04:48:47.906Z,95202.5
2023-03-17T04:49:49.843Z,95198.9
2023-03-17T04:50:52.073Z,95196.5
2023-03-17T04:51:54.337Z,95202
2023-03-17T04:52:56.968Z,95201.9
2023-03-17T04:53:59.326Z,95200.1
2023-03-17T04:55:01.835Z,95201.4
2023-03-17T04:56:04.340Z,95201.8
2023-03-17T04:57:06.883Z,95198.4
2023-03-17T04:59:13.855Z,95197.3
2023-03-17T05:00:16.164Z,95198.4
2023-03-17T05:01:18.536Z,95197.9
2023-03-17T05:02:21.316Z,95196.6
2023-03-17T05:05:34.065Z,95189.5
2023-03-17T05:06:36.003Z,95191.9
2023-03-17T05:07:38.515Z,95193.5
2023-03-17T05:08:41.094Z,95196.8
2023-03-17T05:09:43.686Z,95200.8
2023-03-17T05:10:45.914Z,95200.5
2023-03-17T05:11:48.430Z,95201.8
2023-03-17T05:12:50.937Z,95204.8
2023-03-17T05:13:53.448Z,95203.7
2023-03-17T05:14:55.758Z,95199.1
2023-03-17T05:15:57.719Z,95198.8
2023-03-17T05:16:59.952Z,95195.8
2023-03-17T05:18:06.043Z,95198.8
2023-03-17T05:19:08.274Z,95198.6
2023-03-17T05:20:10.542Z,95200
2023-03-17T05:21:12.767Z,95202.6
2023-03-17T05:22:14.978Z,95200.9
2023-03-17T05:23:16.930Z,95203.1
2023-03-17T05:24:19.522Z,95205.4
2023-03-17T05:25:22.033Z,95206.1
2023-03-17T05:26:24.285Z,95201.8
2023-03-17T05:27:26.508Z,95198.9
2023-03-17T05:28:29.055Z,95205.4
2023-03-17T05:29:31.275Z,95203
2023-03-17T05:30:35.111Z,95203.5
2023-03-17T05:31:37.450Z,95203.4
2023-03-17T05:32:40.109Z,95203.3
2023-03-17T05:33:42.736Z,95206.7
2023-03-17T05:34:45.268Z,95205.5
2023-03-17T05:35:48.003Z,95203.8
2023-03-17T05:36:50.067Z,95205.3
2023-03-17T05:37:52.332Z,95203.8
2023-03-17T05:38:54.334Z,95196.6
2023-03-17T05:39:56.893Z,95197.1
2023-03-17T05:40:59.431Z,95193.2
2023-03-17T05:42:01.916Z,95191.6
2023-03-17T05:43:04.138Z,95192.1
2023-03-17T05:44:06.692Z,95190.4
2023-03-17T05:45:08.934Z,95194.4
2023-03-17T05:46:11.638Z,95190.8
2023-03-17T05:47:14.233Z,95190
2023-03-17T05:48:16.723Z,95192.1
2023-03-17T05:49:18.378Z,95193.4
2023-03-17T05:50:20.936Z,95191.2
2023-03-17T05:51:23.458Z,95195.3
2023-03-17T05:52:25.934Z,95191.5
2023-03-17T05:53:28.142Z,95195.7
2023-03-17T05:54:30.096Z,95187.1
2023-03-17T05:55:32.711Z,95190.6
2023-03-17T05:56:35.297Z,95192.5
2023-03-17T05:57:37.822Z,95188.4
2023-03-17T05:58:40.346Z,95190.1
2023-03-17T05:59:42.313Z,95188.8
2023-03-17T06:00:44.882Z,95186.7
2023-03-17T06:01:47.441Z,95187.3
2023-03-17T06:02:49.951Z,95186.1
2023-03-17T06:03:52.609Z,95184.6
2023-03-17T06:04:55.218Z,95185.3
2023-03-17T06:05:57.714Z,95182.2
2023-03-17T06:06:59.695Z,95184.1
2023-03-17T06:08:02.196Z,95182.4
2023-03-17T06:09:04.726Z,95187.7
2023-03-17T06:10:07.231Z,95181.5
2023-03-17T06:11:09.813Z,95186.8
2023-03-17T06:12:12.323Z,95177.2
2023-03-17T06:13:14.826Z,95186.6
2023-03-17T06:14:16.488Z,95187.5
2023-03-17T06:15:19.040Z,95183.2
2023-03-17T06:16:21.706Z,95186.3
2023-03-17T06:17:23.999Z,95187.8
2023-03-17T06:18:25.963Z,95181.2
2023-03-17T06:19:28.181Z,95182.1
2023-03-17T06:20:30.446Z,95183.2
2023-03-17T06:21:32.692Z,95180.1
2023-03-17T06:22:35.212Z,95177.5
2023-03-17T06:23:37.754Z,95178.5
2023-03-17T06:24:40.233Z,95181.5
2023-03-17T06:25:42.743Z,95175.5
2023-03-17T06:26:45.167Z,95173.7
2023-03-17T06:27:47.707Z,95174.9
2023-03-17T06:28:50.229Z,95178.5
2023-03-17T06:29:52.221Z,95173.4
2023-03-17T06:30:55.032Z,95171.7
2023-03-17T06:33:02.989Z,95174.9
2023-03-17T06:34:05.152Z,95179.2
2023-03-17T06:35:07.156Z,95177.3
2023-03-17T06:36:10.121Z,95178.8
2023-03-17T06:37:13.353Z,95179.9
2023-03-17T06:38:16.438Z,95178.4
2023-03-17T06:39:18.974Z,95183.3
2023-03-17T06:40:21.565Z,95180.8
2023-03-17T06:41:23.804Z,95184.6
2023-03-17T06:42:26.429Z,95186.6
2023-03-17T06:43:29.001Z,95180.8
2023-03-17T06:44:31.545Z,95184.1
2023-03-17T06:45:35.109Z,95179.9
2023-03-17T06:46:37.881Z,95190.6
2023-03-17T06:47:40.524Z,95184.9
2023-03-17T06:48:42.753Z,95184.3
2023-03-17T06:49:45.273Z,95187.2
2023-03-17T06:50:47.534Z,95185
2023-03-17T06:51:50.084Z,95184.5
2023-03-17T06:52:52.332Z,95183
2023-03-17T06:53:54.589Z,95182.6
2023-03-17T06:54:56.837Z,95182.2
2023-03-17T06:55:59.353Z,95183.7
2023-03-17T06:57:01.371Z,95180.8
2023-03-17T06:58:03.985Z,95185
2023-03-17T06:59:06.567Z,95182.8
2023-03-17T07:00:08.994Z,95177.6
2023-03-17T07:01:11.306Z,95179
2023-03-17T07:02:13.450Z,95173.5
2023-03-17T07:03:15.966Z,95173.6
2023-03-17T07:04:18.427Z,95174.7
2023-03-17T07:05:20.686Z,95176
2023-03-17T07:06:22.929Z,95177.2
2023-03-17T07:07:25.199Z,95179.3
2023-03-17T07:08:27.709Z,95179.1
2023-03-17T07:09:30.008Z,95180.7
2023-03-17T07:10:32.535Z,95181.9
2023-03-17T07:11:35.184Z,95181.6
2023-03-17T07:12:37.835Z,95186
2023-03-17T07:13:40.285Z,95185.9
2023-03-17T07:14:42.998Z,95185.1
2023-03-17T07:15:45.593Z,95187.2
2023-03-17T07:16:48.512Z,95184.7
2023-03-17T07:17:51.364Z,95186.1
2023-03-17T07:18:53.290Z,95179.3
2023-03-17T07:19:55.799Z,95180.6
2023-03-17T07:20:58.313Z,95183.5
2023-03-17T07:22:00.873Z,95182.5
2023-03-17T07:23:03.453Z,95183.3
2023-03-17T07:24:05.742Z,95183
2023-03-17T07:25:08.334Z,95189.5
2023-03-17T07:26:10.585Z,95189.8
2023-03-17T07:27:12.591Z,95190.7
2023-03-17T07:28:14.545Z,95193.5
2023-03-17T07:29:16.589Z,95190.7
2023-03-17T07:30:19.355Z,95188.5
2023-03-17T07:31:21.967Z,95192.5
2023-03-17T07:32:24.645Z,95192.5
2023-03-17T07:33:26.920Z,95189.3
2023-03-17T07:34:29.485Z,95191.9
2023-03-17T07:35:33.821Z,95194.4
2023-03-17T07:36:36.826Z,95193.4
2023-03-17T07:37:39.355Z,95197.8
2023-03-17T07:38:41.623Z,95196.5
2023-03-17T07:39:44.211Z,95198.2
2023-03-17T07:40:46.252Z,95197.9
2023-03-17T07:41:48.922Z,95197.9
2023-03-17T07:42:51.437Z,95200.9
2023-03-17T07:43:54.097Z,95196.4
2023-03-17T07:44:56.474Z,95201.1
2023-03-17T07:45:58.962Z,95199.2
2023-03-17T07:47:01.156Z,95196.5
2023-03-17T07:48:03.423Z,95196.8
2023-03-17T07:49:06.172Z,95198.8
2023-03-17T07:50:08.710Z,95202.3
2023-03-17T07:51:10.940Z,95196.3
2023-03-17T07:52:13.884Z,95196.5
2023-03-17T07:53:16.140Z,95200.6
2023-03-17T07:54:18.730Z,95196
2023-03-17T07:55:21.331Z,95199.7
2023-03-17T07:56:23.643Z,95198.2
2023-03-17T07:57:26.507Z,95197.5
2023-03-17T07:58:28.894Z,95195.2
2023-03-17T07:59:31.698Z,95194
2023-03-17T08:00:36.000Z,95198.5
2023-03-17T08:01:39.014Z,95197.9
2023-03-17T08:02:42.029Z,95202.4
2023-03-17T08:03:44.962Z,95202.2
2023-03-17T08:04:47.681Z,95202
2023-03-17T08:05:50.222Z,95199.8
2023-03-17T08:06:52.452Z,95200.7
2023-03-17T08:07:54.966Z,95203.6
2023-03-17T08:08:57.558Z,95202.3
2023-03-17T08:10:00.191Z,95202.1
2023-03-17T08:11:02.245Z,95204.8
2023-03-17T08:12:04.278Z,95204.9
2023-03-17T08:13:06.828Z,95208.5
2023-03-17T08:14:09.088Z,95206.1
2023-03-17T08:15:11.621Z,95204.7
2023-03-17T08:16:14.293Z,95204.6
2023-03-17T08:17:16.999Z,95206.7
2023-03-17T08:18:19.619Z,95208.7
2023-03-17T08:19:22.191Z,95205.7
2023-03-17T08:20:24.711Z,95206.1
2023-03-17T08:21:27.289Z,95206.4
2023-03-17T08:22:29.597Z,95207
2023-03-17T08:23:31.463Z,95202.1
2023-03-17T08:24:33.720Z,95199.9
2023-03-17T08:25:36.071Z,95198.9
2023-03-17T08:26:38.713Z,95194.7
2023-03-17T08:27:41.093Z,95190.7
2023-03-17T08:28:43.061Z,95190.3
2023-03-17T08:29:45.461Z,95187.6
2023-03-17T08:31:53.301Z,95186.7
2023-03-17T08:32:56.295Z,95182.9
2023-03-17T08:33:58.960Z,95180.9
2023-03-17T08:35:01.550Z,95183.9
2023-03-17T08:36:04.106Z,95181.8
2023-03-17T08:37:06.998Z,95177.7
2023-03-17T08:38:14.069Z,95176.2
2023-03-17T08:39:16.603Z,95179.9
2023-03-17T08:40:19.143Z,95181.9
2023-03-17T08:41:21.425Z,95182
2023-03-17T08:42:23.730Z,95180.4
2023-03-17T08:43:26.319Z,95184.9
2023-03-17T08:44:28.612Z,95183.6
2023-03-17T08:45:32.735Z,95184.6
2023-03-17T08:46:35.544Z,95184.6
2023-03-17T08:47:38.332Z,95183.6
2023-03-17T08:48:40.965Z,95185.3
2023-03-17T08:49:43.544Z,95193.7
2023-03-17T08:50:45.843Z,95192.4
2023-03-17T08:51:48.128Z,95188.6
2023-03-17T08:52:50.734Z,95188.8
2023-03-17T08:53:53.044Z,95190.2
2023-03-17T08:54:55.618Z,95193.1
2023-03-17T08:55:57.598Z,95186.9
2023-03-17T08:56:59.836Z,95190.9
2023-03-17T08:58:02.429Z,95191.6
2023-03-17T08:59:04.789Z,95189.7
2023-03-17T09:00:07.038Z,95188.8
2023-03-17T09:01:09.523Z,95196.1
2023-03-17T09:02:12.302Z,95197.3
2023-03-17T09:03:15.076Z,95200.5
2023-03-17T09:04:17.670Z,95201
2023-03-17T09:05:19.926Z,95198.2
2023-03-17T09:06:22.533Z,95195
2023-03-17T09:07:25.102Z,95195.7
2023-03-17T09:08:27.084Z,95189.1
2023-03-17T09:09:29.663Z,95188.7
2023-03-17T09:10:33.390Z,95184.7
2023-03-17T09:11:36.179Z,95182
2023-03-17T09:12:38.789Z,95180
2023-03-17T09:13:41.440Z,95177.7
2023-03-17T09:14:49.658Z,95174.8
2023-03-17T09:15:53.732Z,95175.8
2023-03-17T09:16:56.133Z,95176.4
2023-03-17T09:17:58.421Z,95176.6
2023-03-17T09:19:01.229Z,95172.2
2023-03-17T09:20:03.884Z,95163.2
2023-03-17T09:21:06.193Z,95163.9
2023-03-17T09:22:08.484Z,95162.5
2023-03-17T09:23:11.104Z,95161.8
2023-03-17T09:24:13.673Z,95158.3
2023-03-17T09:25:16.245Z,95159.8
2023-03-17T09:26:18.545Z,95163.5
2023-03-17T09:27:20.857Z,95163.3
2023-03-17T09:28:23.162Z,95159.4
2023-03-17T09:29:25.143Z,95161.8
2023-03-17T09:30:27.709Z,95159.6
2023-03-17T09:31:30.430Z,95157.3
2023-03-17T09:32:33.421Z,95158.5
2023-03-17T09:33:36.152Z,95154.6
2023-03-17T09:34:38.746Z,95158.7
2023-03-17T09:35:41.780Z,95154.3
2023-03-17T09:36:44.371Z,95149.6
2023-03-17T09:37:46.732Z,95151.6
2023-03-17T09:38:49.010Z,95153.8
2023-03-17T09:39:51.286Z,95154.7
2023-03-17T09:40:53.811Z,95154.2
2023-03-17T09:41:56.342Z,95153.1
2023-03-17T09:42:58.890Z,95155.9
2023-03-17T09:44:01.188Z,95153.2
2023-03-17T09:45:03.860Z,95150.9
2023-03-17T09:46:06.361Z,95155.1
2023-03-17T09:47:09.315Z,95151.5
2023-03-17T09:48:11.878Z,95151.4
2023-03-17T09:49:14.150Z,95153.9
2023-03-17T09:50:16.776Z,95148.2
2023-03-17T09:51:19.381Z,95156.3
2023-03-17T09:52:21.669Z,95150.9
2023-03-17T09:53:24.191Z,95152.9
2023-03-17T09:54:26.770Z,95152.2
2023-03-17T09:55:29.911Z,95146.8
2023-03-17T09:56:33.047Z,95150.7
2023-03-17T09:57:35.647Z,95149.8
2023-03-17T09:58:37.696Z,95151.1
2023-03-17T09:59:40.394Z,95151.7
2023-03-17T10:00:42.983Z,95151.5
2023-03-17T10:01:45.826Z,95154.2
2023-03-17T10:02:48.219Z,95156
2023-03-17T10:03:50.762Z,95152.2
2023-03-17T10:04:53.770Z,95147.9
2023-03-17T10:05:56.542Z,95148.6
2023-03-17T10:06:59.069Z,95147.7
2023-03-17T10:08:01.045Z,95149.8
2023-03-17T10:09:03.312Z,95147.2
2023-03-17T10:10:05.617Z,95150.1
2023-03-17T10:11:08.188Z,95153.8
2023-03-17T10:12:10.502Z,95144.4
2023-03-17T10:13:12.552Z,95144.5
2023-03-17T10:14:15.088Z,95143.7
2023-03-17T10:15:18.388Z,95140.9
2023-03-17T10:16:20.807Z,95136.6
2023-03-17T10:17:23.289Z,95131.8
2023-03-17T10:18:25.813Z,95125.8
2023-03-17T10:19:27.852Z,95128
2023-03-17T10:20:30.110Z,95125.4
2023-03-17T10:21:32.757Z,95126.4
2023-03-17T10:22:35.370Z,95127.7
2023-03-17T10:23:37.964Z,95124.7
2023-03-17T10:24:40.579Z,95124.6
2023-03-17T10:25:42.998Z,95126
2023-03-17T10:26:45.545Z,95127.1
2023-03-17T10:27:48.061Z,95127.4
2023-03-17T10:28:50.343Z,95139.4
2023-03-17T10:29:52.880Z,95131.1
2023-03-17T10:30:55.406Z,95142.1
2023-03-17T10:32:00.300Z,95139.4
2023-03-17T10:33:02.877Z,95142
2023-03-17T10:34:05.308Z,95138.6
2023-03-17T10:35:07.645Z,95139
2023-03-17T10:36:10.305Z,95140.9
2023-03-17T10:37:13.118Z,95144.5
2023-03-17T10:38:16.320Z,95143.5
2023-03-17T10:39:18.866Z,95140.8
2023-03-17T10:40:21.371Z,95138.2
2023-03-17T10:41:23.975Z,95134.7
2023-03-17T10:42:26.669Z,95138.7
2023-03-17T10:43:29.385Z,95131.5
2023-03-17T10:44:31.667Z,95129
2023-03-17T10:45:34.249Z,95127.1
2023-03-17T10:46:37.058Z,95128.2
2023-03-17T10:47:39.042Z,95127.5
2023-03-17T10:48:41.360Z,95127.7
2023-03-17T10:49:43.907Z,95130.5
2023-03-17T10:50:50.107Z,95121
2023-03-17T10:51:54.679Z,95128.2
2023-03-17T10:52:57.285Z,95118.5
2023-03-17T10:53:59.357Z,95121
2023-03-17T10:55:01.336Z,95122.2
2023-03-17T10:56:03.631Z,95120.6
2023-03-17T10:57:05.644Z,95118.8
2023-03-17T10:58:08.236Z,95121.7
2023-03-17T10:59:10.999Z,95123.7
2023-03-17T11:00:13.604Z,95118.3
2023-03-17T11:01:16.390Z,95118.5
2023-03-17T11:02:18.478Z,95120.6
2023-03-17T11:03:21.009Z,95120.2
2023-03-17T11:04:23.468Z,95119.1
2023-03-17T11:05:25.996Z,95115
2023-03-17T11:06:28.270Z,95111.9
2023-03-17T11:07:30.821Z,95109.2
2023-03-17T11:08:33.508Z,95106.4
2023-03-17T11:09:36.067Z,95104.2
2023-03-17T11:10:38.614Z,95107.9
2023-03-17T11:11:40.907Z,95111
2023-03-17T11:12:43.461Z,95108.6
2023-03-17T11:13:45.427Z,95106.1
2023-03-17T11:14:47.967Z,95107.6
2023-03-17T11:15:50.501Z,95106
2023-03-17T11:16:53.115Z,95107.1
2023-03-17T11:17:55.646Z,95103.1
2023-03-17T11:18:57.900Z,95104.2
2023-03-17T11:19:59.885Z,95099.1
2023-03-17T11:21:02.485Z,95100.7
2023-03-17T11:22:04.796Z,95100.1
2023-03-17T11:23:07.051Z,95102.2
2023-03-17T11:24:09.732Z,95097.6
2023-03-17T11:25:12.064Z,95097.6
2023-03-17T11:26:14.304Z,95095.1
2023-03-17T11:27:16.305Z,95093.2
2023-03-17T11:28:18.854Z,95087.9
2023-03-17T11:29:21.120Z,95090.2
2023-03-17T11:30:23.770Z,95091.1
2023-03-17T11:31:26.607Z,95086.9
2023-03-17T11:32:29.295Z,95089.9
2023-03-17T11:33:32.005Z,95090
2023-03-17T11:34:33.974Z,95084.8
2023-03-17T11:35:36.755Z,95090.5
2023-03-17T11:36:39.318Z,95086.5
2023-03-17T11:37:41.926Z,95081.6
2023-03-17T11:38:44.483Z,95082.7
2023-03-17T11:39:47.097Z,95079.8
2023-03-17T11:40:49.649Z,95074.8
2023-03-17T11:41:52.177Z,95078.5
2023-03-17T11:42:57.615Z,95075.7
2023-03-17T11:43:59.870Z,95069.8
2023-03-17T11:45:02.479Z,95073.6
2023-03-17T11:46:04.900Z,95071.4
2023-03-17T11:47:07.337Z,95071.2
2023-03-17T11:48:09.891Z,95071.6
2023-03-17T11:49:12.466Z,95070.1
2023-03-17T11:50:15.069Z,95076.8
2023-03-17T11:51:17.663Z,95075.2
2023-03-17T11:52:20.204Z,95071.5
2023-03-17T11:53:22.824Z,95072.8
2023-03-17T11:54:25.080Z,95065.6
2023-03-17T11:55:27.675Z,95068.5
2023-03-17T11:56:30.037Z,95068.9
2023-03-17T11:57:32.593Z,95073.4
2023-03-17T11:58:34.878Z,95073.8
2023-03-17T11:59:37.113Z,95071.8
2023-03-17T12:00:39.945Z,95066.8
2023-03-17T12:01:44.911Z,95067.6
2023-03-17T12:02:47.187Z,95064.1
2023-03-17T12:03:50.295Z,95063.4
2023-03-17T12:04:53.205Z,95060.8
2023-03-17T12:05:55.775Z,95059.7
2023-03-17T12:06:58.405Z,95058.9
2023-03-17T12:08:00.720Z,95056
2023-03-17T12:09:03.292Z,95053.4
2023-03-17T12:10:05.601Z,95049.2
2023-03-17T12:11:08.216Z,95044.4
2023-03-17T12:12:10.758Z,95050.5
2023-03-17T12:13:13.026Z,95049.6
2023-03-17T12:14:15.595Z,95047.4
2023-03-17T12:15:17.532Z,95042.8
2023-03-17T12:16:20.260Z,95051.2
2023-03-17T12:17:25.820Z,95045.7
2023-03-17T12:18:30.429Z,95046.2
2023-03-17T12:19:32.998Z,95042.7
2023-03-17T12:20:35.676Z,95046.4
2023-03-17T12:21:37.397Z,95040.1
2023-03-17T12:22:39.423Z,95042.5
2023-03-17T12:23:41.946Z,95040.6
2023-03-17T12:24:43.974Z,95041.7
2023-03-17T12:25:46.238Z,95038.6
2023-03-17T12:26:48.850Z,95042.2
2023-03-17T12:27:51.392Z,95039.1
2023-03-17T12:28:56.227Z,95041.3
2023-03-17T12:29:59.480Z,95033.5
2023-03-17T12:31:02.373Z,95034.6
2023-03-17T12:32:05.035Z,95036.5
2023-03-17T12:33:08.062Z,95036.3
2023-03-17T12:34:10.464Z,95029.6
2023-03-17T12:35:12.730Z,95031.4
2023-03-17T12:36:14.944Z,95027.9
2023-03-17T12:37:17.280Z,95026.4
2023-03-17T12:38:19.690Z,95021
2023-03-17T12:39:22.311Z,95021.8
2023-03-17T12:41:29.904Z,95025
2023-03-17T12:42:32.495Z,95024.2
2023-03-17T12:43:34.761Z,95021.5
2023-03-17T12:44:36.994Z,95022
2023-03-17T12:45:39.260Z,95027.6
2023-03-17T12:46:42.199Z,95024.3
2023-03-17T12:47:45.018Z,95028.3
2023-03-17T12:48:47.256Z,95026.4